Time;durP1;ratioP1;P1;durP2;ratioP2;P2;SDS_P1;SDS_P2;PMS_P1;PMS_P2;Temp;Humidity;BMP_temperature;BMP_pressure;BME280_temperature;BME280_humidity;BME280_pressure;Samples;Min_cycle;Max_cycle;Signal;HPM_P1;HPM_P2
2022/06/30 00:00:00;;;;;;;6.37;3.60;;;;;;;25.92;44.42;98327.62;4364137;32;20159;-73
2022/06/30 00:02:33;;;;;;;9.65;4.00;;;;;;;25.93;44.11;98324.69;4364022;32;20067;-73
2022/06/30 00:05:00;;;;;;;8.80;3.65;;;;;;;25.83;44.32;98325.38;4363998;32;20117;-73
2022/06/30 00:07:27;;;;;;;7.18;3.55;;;;;;;25.85;44.51;98327.81;4364136;32;20103;-73
2022/06/30 00:09:55;;;;;;;9.25;3.67;;;;;;;25.82;44.67;98331.00;4363947;32;20087;-73
2022/06/30 00:12:22;;;;;;;11.18;3.60;;;;;;;25.73;44.60;98335.16;4363858;32;20117;-73
2022/06/30 00:14:49;;;;;;;4.72;3.40;;;;;;;25.65;44.64;98334.53;4363877;32;20111;-73
2022/06/30 00:17:16;;;;;;;6.03;3.62;;;;;;;25.64;44.94;98330.19;4363825;32;20510;-73
2022/06/30 00:19:45;;;;;;;8.45;3.45;;;;;;;25.64;44.97;98332.09;4364033;32;20429;-73
2022/06/30 00:22:13;;;;;;;8.63;3.78;;;;;;;25.56;44.31;98325.25;4363833;32;20111;-73
2022/06/30 00:24:40;;;;;;;8.80;3.70;;;;;;;25.56;44.54;98330.63;4363878;32;20114;-73
2022/06/30 00:27:08;;;;;;;9.60;3.28;;;;;;;25.62;44.35;98335.00;4363866;32;20177;-73
2022/06/30 00:29:35;;;;;;;5.82;3.47;;;;;;;25.67;44.41;98340.44;4363777;32;20120;-73
2022/06/30 00:32:03;;;;;;;9.18;3.85;;;;;;;25.67;43.94;98337.75;4364081;32;20095;-73
2022/06/30 00:34:30;;;;;;;5.12;3.60;;;;;;;25.68;44.10;98339.37;4363786;32;20465;-73
2022/06/30 00:36:57;;;;;;;6.45;3.58;;;;;;;25.56;44.04;98327.94;4363889;32;20568;-73
2022/06/30 00:39:24;;;;;;;5.28;3.40;;;;;;;25.55;43.83;98334.34;4363591;32;20129;-73
2022/06/30 00:41:51;;;;;;;4.62;3.28;;;;;;;25.54;43.85;98324.69;4363564;32;20083;-73
2022/06/30 00:44:19;;;;;;;5.85;3.17;;;;;;;25.56;43.69;98324.47;4363665;32;20087;-73
2022/06/30 00:46:47;;;;;;;6.70;3.50;;;;;;;25.46;43.72;98325.91;4363544;32;20098;-73
2022/06/30 00:49:17;;;;;;;4.30;3.20;;;;;;;25.39;44.17;98336.00;4364562;32;20075;-73
2022/06/30 00:51:44;;;;;;;5.68;3.47;;;;;;;25.36;44.07;98332.97;4365711;32;20071;-73
2022/06/30 00:54:12;;;;;;;9.77;3.35;;;;;;;25.32;44.11;98320.06;4351981;32;20166;-73
2022/06/30 00:56:41;;;;;;;4.37;3.37;;;;;;;25.32;43.59;98330.00;4365520;32;20117;-73
2022/06/30 00:59:09;;;;;;;3.80;3.30;;;;;;;25.32;43.13;98320.06;4359577;32;191823;-73
2022/06/30 01:01:37;;;;;;;5.00;3.15;;;;;;;25.29;42.76;98322.41;4351992;32;20121;-73
2022/06/30 01:04:06;;;;;;;4.70;3.40;;;;;;;25.39;42.69;98330.66;4365345;32;20161;-73
2022/06/30 01:06:33;;;;;;;4.75;2.92;;;;;;;25.36;42.68;98333.81;4365316;32;20535;-73
2022/06/30 01:09:00;;;;;;;7.53;3.42;;;;;;;25.40;42.54;98336.81;4351860;32;20169;-73
2022/06/30 01:14:14;;;;;;;10.75;3.17;;;;;;;25.32;42.81;98325.44;4365264;32;20495;-73
2022/06/30 01:16:41;;;;;;;13.35;3.20;;;;;;;25.45;41.89;98323.47;4352236;32;20128;-73
2022/06/30 01:19:09;;;;;;;4.57;2.53;;;;;;;25.47;42.02;98324.87;4365115;32;20158;-73
2022/06/30 01:21:36;;;;;;;6.40;3.12;;;;;;;25.45;41.79;98323.47;4365238;32;20564;-73
2022/06/30 01:24:04;;;;;;;7.55;3.53;;;;;;;25.33;42.60;98331.63;4365243;32;20113;-73
2022/06/30 01:26:32;;;;;;;4.05;2.92;;;;;;;25.29;42.51;98317.88;4365310;32;20103;-73
2022/06/30 01:29:05;;;;;;;5.57;3.05;;;;;;;25.14;43.09;98326.44;4365266;32;20107;-73
2022/06/30 01:31:32;;;;;;;4.45;3.30;;;;;;;24.93;43.59;98338.69;4365207;32;20255;-73
2022/06/30 01:34:00;;;;;;;8.70;3.22;;;;;;;24.91;43.06;98329.28;4365056;32;20155;-73
2022/06/30 01:36:27;;;;;;;6.43;2.90;;;;;;;24.91;43.13;98330.09;4365151;32;20154;-73
2022/06/30 01:38:54;;;;;;;6.30;3.00;;;;;;;24.86;43.17;98329.19;4365133;32;20083;-73
2022/06/30 01:41:23;;;;;;;6.03;3.35;;;;;;;24.88;43.42;98330.56;4365004;32;20086;-73
2022/06/30 01:43:50;;;;;;;7.40;3.47;;;;;;;24.82;44.01;98336.91;4365023;32;20162;-73
2022/06/30 01:46:20;;;;;;;15.30;3.45;;;;;;;24.78;43.83;98343.78;4365026;32;20122;-73
2022/06/30 01:48:48;;;;;;;11.43;3.30;;;;;;;24.66;44.22;98337.66;4352097;32;20453;-73
2022/06/30 01:51:15;;;;;;;5.82;2.87;;;;;;;24.53;44.51;98336.06;4364982;32;20098;-73
2022/06/30 01:53:42;;;;;;;6.12;2.90;;;;;;;24.43;44.92;98342.81;4364999;32;20158;-73
2022/06/30 01:56:10;;;;;;;4.35;3.17;;;;;;;24.27;45.16;98339.03;4365030;32;20099;-73
2022/06/30 01:58:37;;;;;;;6.93;3.70;;;;;;;24.19;45.53;98344.75;4365036;32;20095;-73
2022/06/30 02:01:04;;;;;;;5.00;3.03;;;;;;;24.10;45.60;98346.16;4364351;32;20425;-73
2022/06/30 02:03:31;;;;;;;7.45;3.05;;;;;;;23.99;45.78;98349.69;4364974;32;20088;-73
2022/06/30 02:05:59;;;;;;;6.32;2.60;;;;;;;23.87;46.66;98347.03;4365014;32;20597;-73
2022/06/30 02:08:26;;;;;;;5.72;3.00;;;;;;;23.76;47.24;98340.59;4365047;32;20382;-73
2022/06/30 02:10:53;;;;;;;8.25;3.20;;;;;;;23.65;47.83;98346.75;4365005;32;20479;-73
2022/06/30 02:13:20;;;;;;;6.20;3.20;;;;;;;23.52;48.64;98345.94;4364948;32;20433;-73
2022/06/30 02:15:48;;;;;;;7.55;3.05;;;;;;;23.45;48.53;98349.78;4364958;32;20095;-73
2022/06/30 02:18:15;;;;;;;7.57;3.33;;;;;;;23.34;48.80;98343.38;4364726;32;20469;-73
2022/06/30 02:20:43;;;;;;;6.95;3.30;;;;;;;23.28;48.76;98345.09;4365010;32;20150;-73
2022/06/30 02:23:10;;;;;;;3.60;3.22;;;;;;;23.31;48.65;98341.16;4364904;32;20103;-73
2022/06/30 02:25:37;;;;;;;5.47;3.00;;;;;;;23.32;47.60;98340.13;4364900;32;20099;-73
2022/06/30 02:28:05;;;;;;;3.97;3.55;;;;;;;23.38;47.72;98340.00;4364829;32;20105;-73
2022/06/30 02:30:33;;;;;;;5.78;3.05;;;;;;;23.35;47.52;98347.69;4364816;32;20086;-73
2022/06/30 02:33:00;;;;;;;6.45;3.45;;;;;;;23.37;48.21;98342.91;4364806;32;20091;-73
2022/06/30 02:35:28;;;;;;;7.80;3.10;;;;;;;23.37;47.50;98342.91;4365058;32;20099;-73
2022/06/30 02:37:56;;;;;;;4.50;3.10;;;;;;;23.47;47.36;98343.16;4364724;32;20083;-73
2022/06/30 02:40:23;;;;;;;5.30;3.00;;;;;;;23.40;48.42;98339.78;4364684;32;20421;-73
2022/06/30 02:42:57;;;;;;;7.82;3.17;;;;;;;23.30;48.80;98344.88;4364770;32;20453;-73
2022/06/30 02:45:24;;;;;;;5.97;3.25;;;;;;;23.18;48.25;98347.50;4364976;32;20091;-73
2022/06/30 02:47:51;;;;;;;4.07;3.15;;;;;;;23.31;47.60;98349.19;4364584;32;20734;-73
2022/06/30 02:50:18;;;;;;;4.70;3.47;;;;;;;23.46;46.54;98346.87;4364671;32;20095;-73
2022/06/30 02:52:46;;;;;;;8.68;3.95;;;;;;;23.49;47.25;98345.59;4364667;32;20182;-73
2022/06/30 02:55:13;;;;;;;8.73;3.87;;;;;;;23.46;47.93;98344.19;4364924;32;20121;-73
2022/06/30 02:57:40;;;;;;;4.78;3.10;;;;;;;23.29;48.02;98337.91;4364465;32;20145;-72
2022/06/30 03:00:09;;;;;;;5.07;3.62;;;;;;;23.30;47.38;98343.03;4364532;32;20083;-73
2022/06/30 03:02:37;;;;;;;5.62;3.00;;;;;;;23.25;47.13;98340.22;4364641;32;20750;-73
2022/06/30 03:05:05;;;;;;;4.97;2.90;;;;;;;23.24;47.99;98338.59;4364658;32;20121;-73
2022/06/30 03:07:32;;;;;;;4.30;3.30;;;;;;;23.27;48.24;98346.16;4364530;32;20091;-73
2022/06/30 03:09:59;;;;;;;7.15;3.40;;;;;;;23.25;48.27;98353.56;4364393;32;20142;-73
2022/06/30 03:12:28;;;;;;;6.28;3.15;;;;;;;23.17;47.78;98346.72;4363204;32;20099;-73
2022/06/30 03:14:56;;;;;;;8.35;3.10;;;;;;;23.20;47.96;98348.13;4364550;32;20111;-73
2022/06/30 03:17:24;;;;;;;3.42;2.87;;;;;;;23.28;48.15;98361.13;4364500;32;20146;-73
2022/06/30 03:19:51;;;;;;;4.37;3.12;;;;;;;23.26;48.08;98352.53;4364474;32;20161;-73
2022/06/30 03:22:19;;;;;;;4.75;3.30;;;;;;;23.07;48.66;98359.78;4364582;32;20171;-73
2022/06/30 03:24:46;;;;;;;5.03;3.30;;;;;;;23.17;49.04;98365.41;4364569;32;20108;-73
2022/06/30 03:27:14;;;;;;;5.65;3.17;;;;;;;23.20;48.38;98356.94;4364696;32;20551;-72
2022/06/30 03:29:41;;;;;;;5.70;2.90;;;;;;;23.29;47.96;98367.31;4364337;32;20106;-73
2022/06/30 03:32:09;;;;;;;9.50;3.22;;;;;;;23.32;47.84;98366.84;4364417;32;20103;-73
2022/06/30 03:34:36;;;;;;;5.75;3.15;;;;;;;23.57;47.65;98366.62;4364622;32;20103;-73
2022/06/30 03:37:03;;;;;;;4.00;2.58;;;;;;;23.52;47.34;98372.69;4364333;32;20487;-73
2022/06/30 03:39:31;;;;;;;7.25;3.30;;;;;;;23.59;47.20;98383.28;4364269;32;20079;-73
2022/06/30 03:41:58;;;;;;;5.70;2.87;;;;;;;23.70;47.14;98376.31;4364355;32;20154;-73
2022/06/30 03:44:25;;;;;;;6.72;3.30;;;;;;;23.76;46.99;98371.91;4364177;32;20158;-73
2022/06/30 03:46:52;;;;;;;4.43;2.78;;;;;;;23.85;47.34;98381.22;4364130;32;20539;-73
2022/06/30 03:49:23;;;;;;;7.12;2.87;;;;;;;23.90;46.59;98379.47;4364290;32;20149;-73
2022/06/30 03:51:51;;;;;;;4.15;3.12;;;;;;;24.07;45.89;98376.06;4364178;32;20132;-73
2022/06/30 03:54:19;;;;;;;3.95;3.10;;;;;;;24.15;45.72;98385.59;4364228;32;20099;-73
2022/06/30 03:56:47;;;;;;;4.05;2.80;;;;;;;24.23;46.10;98383.38;4364275;32;20174;-72
2022/06/30 03:59:15;;;;;;;4.30;2.55;;;;;;;24.33;46.13;98387.31;4364059;32;20091;-73
2022/06/30 04:01:42;;;;;;;4.05;3.03;;;;;;;24.38;45.05;98387.44;4364037;32;20118;-73
2022/06/30 04:04:09;;;;;;;4.03;3.00;;;;;;;24.43;46.11;98392.91;4364016;32;20099;-73
2022/06/30 04:06:37;;;;;;;25.25;4.93;;;;;;;24.59;44.84;98394.06;4364055;32;20418;-73
2022/06/30 04:12:34;;;;;;;14.70;3.20;;;;;;;24.81;44.48;98396.88;4363799;32;20142;-73
2022/06/30 04:15:01;;;;;;;7.95;2.97;;;;;;;24.99;44.43;98395.88;4364020;32;20095;-73
2022/06/30 04:17:28;;;;;;;7.25;3.15;;;;;;;25.00;44.37;98394.84;4364090;32;20087;-73
2022/06/30 04:19:55;;;;;;;5.25;2.90;;;;;;;25.02;44.36;98392.72;4363829;32;20158;-73
2022/06/30 04:22:23;;;;;;;3.55;2.90;;;;;;;25.19;44.11;98382.00;4363948;32;20094;-73
2022/06/30 04:24:50;;;;;;;5.20;2.67;;;;;;;25.28;43.85;98388.59;4363487;32;20109;-73
2022/06/30 04:27:17;;;;;;;10.20;3.33;;;;;;;25.38;44.06;98384.53;4363799;32;20118;-73
2022/06/30 04:29:45;;;;;;;5.37;2.85;;;;;;;25.52;44.02;98385.00;4363866;32;20135;-73
2022/06/30 04:34:58;;;;;;;12.07;3.55;;;;;;;25.72;43.18;98385.31;4363744;32;20146;-73
2022/06/30 04:37:25;;;;;;;6.75;2.95;;;;;;;26.00;42.60;98389.78;4363565;32;20106;-72
2022/06/30 04:41:23;;;;;;;10.10;3.10;;;;;;;26.08;42.64;98391.22;4363595;32;20095;-73
2022/06/30 04:42:39;;;;;;;5.60;2.95;;;;;;;26.21;42.46;98390.88;4363449;32;20092;-73
2022/06/30 04:45:07;;;;;;;7.43;2.90;;;;;;;26.26;42.15;98392.00;4363565;32;20170;-73
2022/06/30 04:47:35;;;;;;;3.47;2.55;;;;;;;26.43;41.90;98387.38;4363504;32;20079;-73
2022/06/30 04:50:04;;;;;;;3.83;2.50;;;;;;;26.50;40.69;98384.53;4363447;32;20130;-73
2022/06/30 04:52:31;;;;;;;6.65;3.05;;;;;;;26.62;41.17;98389.75;4363605;32;20142;-73
2022/06/30 04:55:04;;;;;;;4.87;2.92;;;;;;;26.62;41.28;98389.75;4363532;32;20450;-73
2022/06/30 04:57:31;;;;;;;10.02;3.00;;;;;;;26.93;40.21;98390.91;4363471;32;20109;-73
2022/06/30 04:59:58;;;;;;;29.33;4.15;;;;;;;27.01;39.96;98389.66;4363248;32;20099;-73
2022/06/30 05:02:27;;;;;;;12.85;3.08;;;;;;;27.13;40.36;98392.19;4363224;32;20095;-73
2022/06/30 05:04:54;;;;;;;4.18;3.00;;;;;;;27.23;39.91;98394.97;4363384;32;20573;-73
2022/06/30 05:07:21;;;;;;;5.93;2.97;;;;;;;27.31;39.47;98382.94;4363212;32;20091;-73
2022/06/30 05:09:48;;;;;;;3.45;3.05;;;;;;;27.46;38.93;98384.97;4363283;32;20557;-73
2022/06/30 05:12:16;;;;;;;4.55;3.08;;;;;;;27.52;38.17;98386.63;4363008;32;20091;-73
2022/06/30 05:14:43;;;;;;;14.27;3.33;;;;;;;27.60;39.04;98386.97;4363308;32;20118;-73
2022/06/30 05:17:11;;;;;;;4.75;2.90;;;;;;;27.74;38.00;98398.09;4363079;32;20142;-73
2022/06/30 05:19:38;;;;;;;7.70;3.10;;;;;;;27.88;37.83;98401.16;4362990;32;20176;-73
2022/06/30 05:22:06;;;;;;;6.47;2.90;;;;;;;28.09;38.49;98394.03;4363042;32;20106;-73
2022/06/30 05:27:19;;;;;;;7.40;3.05;;;;;;;28.16;38.18;98396.50;4362986;32;20075;-73
2022/06/30 05:29:47;;;;;;;8.60;2.95;;;;;;;28.28;36.44;98393.59;4363229;32;20609;-73
2022/06/30 05:32:14;;;;;;;7.32;3.00;;;;;;;28.33;36.64;98390.94;4363029;32;20095;-73
2022/06/30 05:34:41;;;;;;;4.25;2.80;;;;;;;28.40;36.42;98398.78;4362930;32;20113;-73
2022/06/30 05:37:08;;;;;;;9.88;3.60;;;;;;;28.43;36.71;98399.03;4364971;32;20118;-73
2022/06/30 05:39:35;;;;;;;6.70;3.10;;;;;;;28.50;36.21;98398.81;4365154;32;20440;-73
2022/06/30 05:42:03;;;;;;;6.35;3.53;;;;;;;28.48;35.00;98409.06;4364986;32;20099;-73
2022/06/30 05:44:30;;;;;;;7.43;3.37;;;;;;;28.53;35.98;98403.69;4365045;32;20158;-73
2022/06/30 05:46:58;;;;;;;4.93;3.12;;;;;;;28.55;36.47;98404.22;4365358;32;20056;-73
2022/06/30 05:49:26;;;;;;;4.87;2.67;;;;;;;28.39;36.27;98406.06;4365100;32;20493;-73
2022/06/30 05:51:53;;;;;;;5.87;2.97;;;;;;;28.56;35.76;98403.16;4364970;32;20099;-73
2022/06/30 05:54:20;;;;;;;11.52;3.72;;;;;;;28.62;36.40;98398.63;4365085;32;20429;-73
2022/06/30 05:56:48;;;;;;;5.97;2.80;;;;;;;28.46;35.67;98395.03;4365294;32;20460;-73
2022/06/30 05:59:15;;;;;;;10.15;3.10;;;;;;;28.51;35.33;98395.06;4365072;32;20558;-73
2022/06/30 06:01:42;;;;;;;6.80;3.33;;;;;;;28.59;36.26;98402.66;4365066;32;20092;-73
2022/06/30 06:04:10;;;;;;;6.93;3.95;;;;;;;28.68;36.33;98402.97;4365096;32;20086;-73
2022/06/30 06:06:37;;;;;;;5.45;3.40;;;;;;;28.67;35.02;98404.03;4364982;32;20118;-73
2022/06/30 06:09:04;;;;;;;6.10;2.95;;;;;;;28.71;34.61;98407.81;4365185;32;20083;-73
2022/06/30 06:11:32;;;;;;;5.47;3.12;;;;;;;28.79;35.76;98399.19;4364754;32;20155;-72
2022/06/30 06:13:59;;;;;;;9.98;3.50;;;;;;;28.87;34.45;98400.56;4364869;32;20161;-73
2022/06/30 06:16:27;;;;;;;6.10;3.28;;;;;;;28.82;34.59;98397.88;4364770;32;20442;-73
2022/06/30 06:18:54;;;;;;;5.22;3.17;;;;;;;28.87;34.23;98399.78;4364894;32;20103;-73
2022/06/30 06:21:21;;;;;;;9.73;3.65;;;;;;;29.02;35.72;98397.09;4364705;32;20099;-73
2022/06/30 06:23:48;;;;;;;5.00;3.42;;;;;;;29.10;36.43;98399.28;4364792;32;20125;-73
2022/06/30 06:26:16;;;;;;;3.70;3.15;;;;;;;29.29;35.84;98404.19;4364779;32;20079;-73
2022/06/30 06:31:29;;;;;;;7.85;3.12;;;;;;;29.01;34.84;98401.69;4364809;32;20119;-73
2022/06/30 06:33:56;;;;;;;6.12;3.40;;;;;;;29.11;35.02;98402.78;4364646;32;20176;-73
2022/06/30 06:36:23;;;;;;;6.32;3.20;;;;;;;28.85;34.37;98397.34;4364563;32;20087;-73
2022/06/30 06:38:51;;;;;;;6.40;3.40;;;;;;;28.75;35.83;98398.13;4364554;32;20091;-73
2022/06/30 06:41:22;;;;;;;12.80;3.67;;;;;;;28.95;35.58;98404.62;4364434;32;20091;-73
2022/06/30 06:43:50;;;;;;;12.70;3.60;;;;;;;28.91;35.39;98398.16;4363862;32;20082;-73
2022/06/30 06:46:18;;;;;;;8.07;3.97;;;;;;;28.94;35.91;98394.94;4364144;32;20099;-73
2022/06/30 06:48:45;;;;;;;7.87;3.53;;;;;;;28.88;35.39;98393.31;4364700;32;20075;-73
2022/06/30 06:51:12;;;;;;;9.68;3.42;;;;;;;28.99;36.42;98382.28;4364380;32;20485;-73
2022/06/30 06:53:40;;;;;;;8.35;3.00;;;;;;;29.34;36.13;98393.37;4364459;32;20121;-73
2022/06/30 06:56:08;;;;;;;5.60;3.33;;;;;;;29.35;34.04;98389.62;4364463;32;20120;-73
2022/06/30 06:58:35;;;;;;;4.70;3.37;;;;;;;29.24;34.80;98393.37;4364491;32;20150;-73
2022/06/30 07:01:04;;;;;;;8.85;3.20;;;;;;;29.33;34.52;98397.97;4364493;32;20122;-73
2022/06/30 07:03:32;;;;;;;5.28;3.10;;;;;;;29.30;34.70;98393.13;4364273;32;20095;-73
2022/06/30 07:05:59;;;;;;;5.62;3.22;;;;;;;29.15;34.57;98396.59;4364501;32;20158;-73
2022/06/30 07:08:26;;;;;;;4.32;3.80;;;;;;;29.17;36.03;98399.81;4364319;32;20083;-73
2022/06/30 07:10:56;;;;;;;5.22;3.20;;;;;;;29.34;34.58;98401.47;4364462;32;20122;-73
2022/06/30 07:13:24;;;;;;;7.40;3.47;;;;;;;29.47;34.84;98397.44;4364275;32;20095;-73
2022/06/30 07:15:51;;;;;;;8.10;3.50;;;;;;;29.40;35.13;98397.69;4364257;32;20430;-73
2022/06/30 07:18:18;;;;;;;5.85;3.72;;;;;;;29.28;36.25;98397.16;4364515;32;20373;-73
2022/06/30 07:20:46;;;;;;;8.65;3.50;;;;;;;29.38;34.90;98389.88;4364284;32;20174;-73
2022/06/30 07:23:14;;;;;;;7.55;3.30;;;;;;;29.56;35.19;98395.81;4364397;32;20473;-73
2022/06/30 07:25:57;;;;;;;29.35;4.37;;;;;;;29.62;34.13;98394.72;4364396;32;20114;-73
2022/06/30 07:28:26;;;;;;;6.62;3.45;;;;;;;29.57;35.29;98378.56;4364387;32;20121;-73
2022/06/30 07:31:14;;;;;;;7.15;3.33;;;;;;;29.82;35.14;98382.31;4364424;32;20083;-73
2022/06/30 07:33:45;;;;;;;7.68;3.78;;;;;;;29.99;34.25;98384.72;4364385;32;20103;-73
2022/06/30 07:36:12;;;;;;;7.70;3.72;;;;;;;29.87;34.60;98377.72;4364286;32;20238;-73
2022/06/30 07:38:40;;;;;;;19.30;4.20;;;;;;;29.83;34.29;98376.66;4364314;32;20195;-73
2022/06/30 07:41:07;;;;;;;8.70;3.47;;;;;;;29.78;33.36;98379.34;4364125;32;20134;-73
2022/06/30 07:43:35;;;;;;;11.63;3.83;;;;;;;30.02;34.24;98379.56;4364226;32;20485;-73
2022/06/30 07:46:02;;;;;;;18.08;4.45;;;;;;;30.06;33.67;98369.81;4364185;32;20449;-73
2022/06/30 07:48:29;;;;;;;6.45;3.25;;;;;;;29.94;33.44;98363.94;4350832;32;20109;-73
2022/06/30 07:50:56;;;;;;;11.50;3.53;;;;;;;30.06;33.56;98382.53;4350786;32;20421;-73
2022/06/30 07:53:24;;;;;;;17.50;3.60;;;;;;;30.23;34.10;98374.91;4364066;32;20128;-73
2022/06/30 07:55:51;;;;;;;4.12;3.00;;;;;;;30.42;34.08;98379.75;4364390;32;20334;-73
2022/06/30 07:58:18;;;;;;;5.95;3.37;;;;;;;30.68;32.47;98379.63;4363477;32;20373;-73
2022/06/30 08:00:45;;;;;;;9.85;3.65;;;;;;;30.53;32.46;98375.91;4363975;32;20711;-73
2022/06/30 08:03:13;;;;;;;8.10;3.83;;;;;;;30.59;32.78;98365.88;4363986;32;20154;-73
2022/06/30 08:05:40;;;;;;;11.45;3.80;;;;;;;30.42;32.48;98375.13;4364032;32;20087;-73
2022/06/30 08:08:08;;;;;;;6.43;3.58;;;;;;;30.54;33.44;98380.22;4363880;32;20133;-73
2022/06/30 08:10:35;;;;;;;6.53;3.60;;;;;;;31.00;33.64;98379.16;4363891;32;20095;-73
2022/06/30 08:13:02;;;;;;;10.73;3.35;;;;;;;30.79;31.62;98379.25;4363641;32;20165;-73
2022/06/30 08:15:29;;;;;;;4.20;3.03;;;;;;;31.01;32.48;98382.69;4363780;32;20113;-73
2022/06/30 08:18:02;;;;;;;6.95;3.40;;;;;;;31.02;31.50;98376.19;4363731;32;20146;-73
2022/06/30 08:20:29;;;;;;;11.27;3.67;;;;;;;31.28;32.63;98372.22;4363753;32;20167;-73
2022/06/30 08:22:56;;;;;;;7.37;3.50;;;;;;;31.40;32.28;98382.69;4363672;32;20421;-73
2022/06/30 08:25:24;;;;;;;7.65;3.25;;;;;;;31.37;33.26;98372.41;4363828;32;20141;-73
2022/06/30 08:27:51;;;;;;;5.35;3.08;;;;;;;31.45;31.46;98374.50;4363692;32;20079;-73
2022/06/30 08:30:19;;;;;;;6.62;3.30;;;;;;;31.70;32.70;98366.44;4363670;32;20098;-73
2022/06/30 08:32:47;;;;;;;11.20;3.70;;;;;;;31.54;32.63;98374.69;4363435;32;20161;-73
2022/06/30 08:35:14;;;;;;;8.68;3.40;;;;;;;31.70;31.40;98361.84;4363798;32;20112;-73
2022/06/30 08:37:42;;;;;;;7.53;3.40;;;;;;;31.66;31.73;98358.91;4363576;32;20157;-73
2022/06/30 08:42:59;;;;;;;10.18;3.17;;;;;;;31.82;32.76;98356.03;4363665;32;20150;-73
2022/06/30 08:48:58;;;;;;;7.45;3.30;;;;;;;31.94;31.84;98353.72;4363497;32;20147;-73
2022/06/30 08:51:28;;;;;;;6.55;3.60;;;;;;;32.43;31.78;98351.00;4363315;32;20103;-73
2022/06/30 08:54:03;;;;;;;6.87;3.10;;;;;;;31.96;29.53;98356.16;4363449;32;20138;-73
2022/06/30 08:56:32;;;;;;;10.20;3.42;;;;;;;32.02;31.23;98350.41;4363400;32;20440;-73
2022/06/30 08:59:00;;;;;;;15.95;4.18;;;;;;;32.15;30.59;98339.97;4363417;32;20083;-73
2022/06/30 09:01:28;;;;;;;6.87;3.30;;;;;;;31.92;31.60;98353.22;4363145;32;20130;-73
2022/06/30 09:03:56;;;;;;;8.68;3.55;;;;;;;31.88;29.72;98356.78;4363430;32;20643;-73
2022/06/30 09:06:24;;;;;;;8.70;3.47;;;;;;;32.13;31.16;98359.25;4363225;32;20438;-73
2022/06/30 09:09:04;;;;;;;5.57;3.65;;;;;;;32.18;30.83;98353.75;4363595;32;20114;-73
2022/06/30 09:11:44;;;;;;;4.50;3.33;;;;;;;32.57;31.16;98362.75;4365297;32;20111;-73
2022/06/30 09:14:34;;;;;;;8.02;3.22;;;;;;;32.66;27.54;98349.38;4365267;32;20403;-73
2022/06/30 09:17:03;;;;;;;7.80;3.22;;;;;;;32.33;28.71;98354.69;4352112;32;20150;-73
2022/06/30 09:19:31;;;;;;;10.50;3.70;;;;;;;32.33;29.53;98352.75;4351819;32;20084;-73
2022/06/30 09:22:08;;;;;;;5.60;3.60;;;;;;;32.63;30.12;98356.16;4365057;32;20172;-73
2022/06/30 09:24:36;;;;;;;7.37;3.60;;;;;;;32.72;29.41;98354.44;4365223;32;20754;-73
2022/06/30 09:27:19;;;;;;;5.35;3.25;;;;;;;32.84;29.78;98356.72;4352858;32;20482;-73
2022/06/30 09:29:53;;;;;;;9.00;3.55;;;;;;;33.02;29.85;98348.84;4365308;32;20102;-73
2022/06/30 09:33:06;;;;;;;6.27;3.27;;;;;;;32.82;30.18;98355.37;4364821;32;20091;-73
2022/06/30 09:35:34;;;;;;;5.50;3.20;;;;;;;32.89;27.93;98358.53;4365121;32;20199;-73
2022/06/30 09:38:09;;;;;;;4.30;3.20;;;;;;;32.80;28.48;98357.59;4365102;32;20091;-73
2022/06/30 09:41:00;;;;;;;7.00;2.75;;;;;;;32.89;28.04;98355.84;4364988;32;20079;-73
2022/06/30 09:43:32;;;;;;;6.00;2.85;;;;;;;33.03;27.22;98351.25;4365094;32;20483;-73
2022/06/30 09:46:00;;;;;;;7.72;3.00;;;;;;;32.85;26.51;98338.53;4365048;32;20149;-73
2022/06/30 09:48:30;;;;;;;4.68;3.05;;;;;;;33.12;27.06;98328.88;4365032;32;20157;-73
2022/06/30 09:51:02;;;;;;;4.35;3.10;;;;;;;32.98;27.62;98337.78;4364982;32;20456;-73
2022/06/30 09:53:30;;;;;;;;;;;;;;;33.22;27.37;98328.75;4365590;32;20114;-73
2022/06/30 09:56:10;;;;;;;9.75;3.37;;;;;;;33.32;26.70;98331.28;4365031;32;19983;-73
2022/06/30 09:58:41;;;;;;;4.95;2.40;;;;;;;32.77;25.18;98328.34;4364974;32;20102;-73
2022/06/30 10:01:09;;;;;;;6.68;2.90;;;;;;;33.09;25.59;98338.41;4365212;32;20094;-73
2022/06/30 10:03:47;;;;;;;9.10;2.95;;;;;;;33.06;26.02;98334.38;4351439;32;20441;-73
2022/06/30 10:06:16;;;;;;;5.37;2.85;;;;;;;33.03;26.27;98324.13;4365042;32;20556;-73
2022/06/30 10:08:44;;;;;;;6.37;2.50;;;;;;;32.99;24.78;98325.00;4364873;32;20162;-73
2022/06/30 10:11:11;;;;;;;5.82;2.75;;;;;;;33.04;25.03;98325.75;4364815;32;20396;-73
2022/06/30 10:13:40;;;;;;;8.45;2.58;;;;;;;33.18;25.12;98327.69;4364716;32;20163;-73
2022/06/30 10:16:08;;;;;;;5.65;2.70;;;;;;;33.57;25.59;98326.50;4364889;32;20142;-73
2022/06/30 10:18:37;;;;;;;7.10;2.58;;;;;;;33.76;26.18;98323.72;4364849;32;20433;-73
2022/06/30 10:21:05;;;;;;;8.45;3.03;;;;;;;33.56;25.17;98322.19;4364516;32;20401;-73
2022/06/30 10:23:32;;;;;;;11.63;2.80;;;;;;;33.42;27.17;98314.00;4364676;32;20103;-73
2022/06/30 10:26:00;;;;;;;8.90;2.80;;;;;;;33.77;24.75;98315.28;4364750;32;20157;-73
2022/06/30 10:28:27;;;;;;;5.22;2.47;;;;;;;33.74;25.31;98324.03;4364805;32;20091;-73
2022/06/30 10:30:58;;;;;;;5.12;2.83;;;;;;;33.74;25.04;98315.09;4364736;32;20113;-73
2022/06/30 10:33:47;;;;;;;10.63;2.80;;;;;;;33.46;25.37;98327.78;4364635;32;20248;-73
2022/06/30 10:36:22;;;;;;;3.90;2.80;;;;;;;33.57;24.89;98315.66;4351317;32;20137;-73
2022/06/30 10:39:17;;;;;;;3.47;2.40;;;;;;;33.63;26.36;98314.44;4351525;32;20091;-73
2022/06/30 10:41:47;;;;;;;9.20;2.70;;;;;;;34.07;24.99;98312.25;4364540;32;20074;-73
2022/06/30 10:44:24;;;;;;;4.55;2.72;;;;;;;33.96;24.86;98311.66;4364642;32;20209;-73
2022/06/30 10:46:55;;;;;;;6.20;2.70;;;;;;;34.14;25.21;98304.47;4364690;32;20090;-73
2022/06/30 10:49:27;;;;;;;6.20;2.92;;;;;;;34.16;24.95;98305.00;4364656;32;20497;-73
2022/06/30 10:51:56;;;;;;;5.73;2.70;;;;;;;34.29;25.17;98306.09;4364628;32;20090;-73
2022/06/30 10:54:31;;;;;;;2.83;2.50;;;;;;;34.50;25.53;98311.09;4364641;32;20122;-73
2022/06/30 10:57:00;;;;;;;5.28;2.80;;;;;;;34.29;24.10;98298.78;4364547;32;20110;-73
2022/06/30 10:59:39;;;;;;;6.53;2.70;;;;;;;34.29;24.71;98296.06;4364605;32;20135;-73
2022/06/30 11:02:07;;;;;;;5.30;2.58;;;;;;;34.04;24.54;98281.06;4364462;32;20087;-73
2022/06/30 11:04:35;;;;;;;5.40;2.87;;;;;;;34.10;24.19;98289.91;4364799;32;20472;-73
2022/06/30 11:07:23;;;;;;;5.70;2.37;;;;;;;34.48;24.33;98293.16;4364497;32;20125;-73
2022/06/30 11:09:51;;;;;;;3.35;2.20;;;;;;;34.57;22.22;98295.97;4364476;32;20109;-73
2022/06/30 11:12:41;;;;;;;3.75;2.25;;;;;;;34.40;22.04;98283.03;4350979;32;20570;-73
2022/06/30 11:15:10;;;;;;;5.95;2.42;;;;;;;34.29;21.78;98282.47;4364460;32;20099;-73
2022/06/30 11:17:39;;;;;;;8.18;2.45;;;;;;;34.43;22.33;98296.00;4364572;32;20177;-73
2022/06/30 11:20:12;;;;;;;10.25;2.50;;;;;;;34.48;23.44;98285.00;4364327;32;20138;-73
2022/06/30 11:22:41;;;;;;;2.53;2.00;;;;;;;34.75;22.06;98277.03;4364268;32;20632;-73
2022/06/30 11:27:17;;;;;;;7.25;2.53;;;;;;;34.97;20.72;98292.59;4364642;32;20111;-73
2022/06/30 11:28:02;;;;;;;9.87;3.13;;;;;;;34.80;21.38;98277.75;4364427;32;20095;-73
2022/06/30 11:30:31;;;;;;;5.50;2.10;;;;;;;34.98;21.45;98288.78;4364637;32;20113;-73
2022/06/30 11:32:59;;;;;;;5.35;2.33;;;;;;;35.00;21.27;98278.37;4363094;32;20110;-73
2022/06/30 11:35:28;;;;;;;6.15;2.58;;;;;;;35.11;21.94;98273.47;4364519;32;20099;-73
2022/06/30 11:44:16;;;;;;;2.83;2.08;;;;;;;35.67;21.14;98257.56;4364217;32;20429;-73
2022/06/30 11:47:00;;;;;;;5.68;2.37;;;;;;;35.52;21.19;98251.44;4364260;32;20095;-73
2022/06/30 11:49:49;;;;;;;4.10;2.60;;;;;;;35.44;20.37;98254.94;4364525;32;20114;-73
2022/06/30 11:52:29;;;;;;;4.55;2.25;;;;;;;35.84;21.35;98262.31;4317526;33;20492;-73
2022/06/30 11:55:09;;;;;;;5.07;2.60;;;;;;;36.06;20.36;98250.47;4317715;33;20163;-73
2022/06/30 11:57:39;;;;;;;4.60;2.08;;;;;;;35.74;20.04;98251.69;4317726;33;20132;-73
2022/06/30 12:00:09;;;;;;;7.55;2.37;;;;;;;35.41;20.37;98239.22;4317748;33;20134;-73
2022/06/30 12:02:37;;;;;;;7.60;2.58;;;;;;;35.36;20.27;98242.09;4317473;33;20213;-73
2022/06/30 12:05:09;;;;;;;4.55;2.22;;;;;;;35.36;20.33;98242.88;4317740;33;20508;-73
2022/06/30 12:07:37;;;;;;;6.43;2.60;;;;;;;35.66;21.41;98250.53;4317795;33;20128;-73